createdAt,value
2022-12-13T00:00:19.570Z,75.44
2022-12-13T00:03:10.143Z,75.21
2022-12-13T00:05:44.942Z,75.40
2022-12-13T00:08:14.428Z,75.42
2022-12-13T00:10:43.356Z,75.21
2022-12-13T00:13:14.491Z,75.14
2022-12-13T00:15:46.136Z,74.91
2022-12-13T00:18:15.547Z,74.80
2022-12-13T00:20:45.047Z,74.56
2022-12-13T00:23:14.152Z,74.54
2022-12-13T00:25:44.964Z,74.41
2022-12-13T00:28:16.388Z,74.64
2022-12-13T00:30:45.481Z,74.54
2022-12-13T00:33:14.599Z,74.32
2022-12-13T00:35:46.295Z,74.06
2022-12-13T00:38:15.520Z,74.28
2022-12-13T00:40:44.520Z,74.37
2022-12-13T00:43:14.534Z,74.26
2022-12-13T00:45:44.789Z,74.17
2022-12-13T00:48:16.704Z,73.99
2022-12-13T00:50:46.221Z,73.93
2022-12-13T00:53:16.705Z,74.17
2022-12-13T00:55:47.103Z,74.17
2022-12-13T00:58:18.012Z,74.20
2022-12-13T01:00:49.390Z,74.10
2022-12-13T01:03:25.749Z,74.45
2022-12-13T01:08:48.009Z,74.27
2022-12-13T01:11:18.532Z,73.92
2022-12-13T01:13:48.921Z,73.80
2022-12-13T01:16:20.314Z,73.97
2022-12-13T01:18:50.682Z,73.66
2022-12-13T01:21:23.381Z,74.07
2022-12-13T01:23:53.339Z,74.25
2022-12-13T01:26:23.762Z,73.98
2022-12-13T01:28:53.698Z,74.07
2022-12-13T01:31:28.789Z,73.86
2022-12-13T01:33:59.317Z,74.23
2022-12-13T01:36:28.593Z,74.36
2022-12-13T01:38:58.064Z,74.28
2022-12-13T01:41:29.193Z,74.35
2022-12-13T01:44:03.903Z,74.27
2022-12-13T01:46:58.064Z,74.63
2022-12-13T01:49:27.525Z,74.84
2022-12-13T01:52:02.765Z,74.75
2022-12-13T01:54:37.494Z,75.07
2022-12-13T01:57:10.474Z,74.96
2022-12-13T01:59:42.638Z,74.81
2022-12-13T02:02:14.430Z,75.16
2022-12-13T02:05:15.729Z,75.03
2022-12-13T02:07:47.926Z,74.61
2022-12-13T02:10:17.534Z,74.96
2022-12-13T02:12:48.353Z,74.78
2022-12-13T02:15:20.588Z,74.47
2022-12-13T02:18:08.299Z,74.22
2022-12-13T02:20:53.350Z,74.22
2022-12-13T02:23:58.362Z,74.31
2022-12-13T02:26:49.498Z,74.04
2022-12-13T02:29:39.353Z,74.28
2022-12-13T02:32:30.235Z,74.30
2022-12-13T02:35:34.034Z,74.07
2022-12-13T02:38:22.997Z,74.36
2022-12-13T02:41:23.526Z,74.76
2022-12-13T02:44:21.773Z,74.41
2022-12-13T02:47:12.772Z,74.83
2022-12-13T02:49:58.525Z,74.43
2022-12-13T02:52:31.998Z,74.16
2022-12-13T02:55:06.529Z,74.40
2022-12-13T02:57:38.861Z,74.59
2022-12-13T03:00:12.842Z,74.70
2022-12-13T03:03:07.410Z,74.75
2022-12-13T03:06:33.325Z,74.44
2022-12-13T03:09:30.088Z,74.31
2022-12-13T03:12:20.197Z,74.11
2022-12-13T03:15:25.038Z,74.47
2022-12-13T03:18:18.044Z,74.65
2022-12-13T03:21:05.817Z,74.60
2022-12-13T03:23:36.285Z,74.12
2022-12-13T03:26:10.866Z,74.03
2022-12-13T03:28:40.876Z,74.14
2022-12-13T03:31:09.942Z,74.30
2022-12-13T03:33:39.186Z,74.37
2022-12-13T03:36:09.657Z,73.99
2022-12-13T03:38:41.089Z,74.24
2022-12-13T03:41:14.585Z,74.51
2022-12-13T03:43:45.817Z,73.90
2022-12-13T03:46:39.299Z,73.73
2022-12-13T03:49:11.306Z,74.21
2022-12-13T03:51:42.731Z,73.94
2022-12-13T03:54:11.798Z,73.87
2022-12-13T03:56:40.685Z,73.67
2022-12-13T03:59:09.607Z,73.88
2022-12-13T04:01:38.816Z,74.11
2022-12-13T04:04:07.804Z,74.54
2022-12-13T04:06:39.582Z,74.34
2022-12-13T04:09:10.093Z,74.55
2022-12-13T04:11:57.753Z,74.61
2022-12-13T04:14:27.513Z,74.49
2022-12-13T04:16:56.446Z,74.99
2022-12-13T04:19:28.854Z,74.73
2022-12-13T04:21:57.918Z,74.76
2022-12-13T04:24:32.023Z,74.93
2022-12-13T04:27:04.045Z,74.26
2022-12-13T04:29:34.669Z,74.66
2022-12-13T04:32:26.979Z,74.59
2022-12-13T04:35:00.926Z,74.68
2022-12-13T04:37:31.721Z,75.15
2022-12-13T04:40:01.484Z,75.16
2022-12-13T04:42:30.627Z,74.82
2022-12-13T04:44:59.566Z,74.70
2022-12-13T04:47:30.316Z,74.76
2022-12-13T04:50:00.512Z,74.94
2022-12-13T04:52:31.086Z,74.91
2022-12-13T04:55:00.100Z,74.93
2022-12-13T04:57:30.324Z,75.07
2022-12-13T04:59:59.722Z,75.00
2022-12-13T05:02:28.862Z,75.08
2022-12-13T05:04:58.303Z,75.14
2022-12-13T05:07:28.158Z,74.88
2022-12-13T05:09:57.058Z,75.10
2022-12-13T05:12:27.569Z,75.19
2022-12-13T05:14:58.540Z,75.16
2022-12-13T05:17:30.217Z,75.03
2022-12-13T05:19:59.384Z,74.41
2022-12-13T05:22:28.734Z,74.57
2022-12-13T05:24:57.620Z,74.70
2022-12-13T05:27:27.142Z,74.85
2022-12-13T05:30:05.478Z,74.83
2022-12-13T05:32:43.370Z,74.66
2022-12-13T05:35:22.830Z,74.45
2022-12-13T05:37:54.549Z,74.73
2022-12-13T05:40:26.453Z,74.60
2022-12-13T05:43:01.674Z,74.67
2022-12-13T05:45:33.321Z,74.65
2022-12-13T05:48:52.181Z,74.74
2022-12-13T05:51:21.294Z,74.87
2022-12-13T05:53:53.422Z,74.82
2022-12-13T05:56:23.452Z,75.01
2022-12-13T05:58:54.627Z,75.20
2022-12-13T06:01:24.166Z,75.25
2022-12-13T06:03:53.066Z,75.38
2022-12-13T06:06:23.984Z,75.62
2022-12-13T06:08:53.388Z,75.78
2022-12-13T06:11:32.252Z,75.59
2022-12-13T06:14:02.354Z,75.63
2022-12-13T06:16:31.646Z,75.70
2022-12-13T06:19:04.578Z,75.82
2022-12-13T06:21:43.455Z,75.95
2022-12-13T06:24:21.267Z,76.08
2022-12-13T06:26:52.817Z,76.17
2022-12-13T06:29:25.696Z,76.11
2022-12-13T06:32:06.159Z,76.11
2022-12-13T06:34:36.964Z,76.00
2022-12-13T06:37:09.472Z,76.18
2022-12-13T06:39:40.276Z,76.13
2022-12-13T06:42:21.839Z,76.32
2022-12-13T06:44:56.185Z,76.37
2022-12-13T06:47:31.646Z,76.28
2022-12-13T06:50:05.908Z,76.35
2022-12-13T06:52:35.732Z,76.38
2022-12-13T06:55:06.125Z,76.45
2022-12-13T06:57:35.622Z,76.58
2022-12-13T07:00:06.145Z,76.29
2022-12-13T07:02:38.596Z,76.20
2022-12-13T07:05:08.643Z,76.01
2022-12-13T07:07:39.373Z,76.18
2022-12-13T07:10:22.136Z,76.11
2022-12-13T07:12:52.124Z,76.10
2022-12-13T07:15:25.512Z,76.04
2022-12-13T07:17:56.097Z,76.10
2022-12-13T07:20:25.384Z,76.04
2022-12-13T07:22:59.801Z,76.07
2022-12-13T07:25:30.012Z,76.15
2022-12-13T07:28:08.738Z,76.26
2022-12-13T07:30:41.481Z,76.24
2022-12-13T07:33:13.577Z,76.17
2022-12-13T07:36:00.198Z,76.18
2022-12-13T07:38:31.888Z,76.27
2022-12-13T07:41:01.156Z,76.27
2022-12-13T07:43:30.618Z,76.44
2022-12-13T07:46:06.493Z,76.23
2022-12-13T07:48:36.471Z,76.36
2022-12-13T07:51:10.028Z,76.21
2022-12-13T07:53:40.958Z,76.36
2022-12-13T07:56:12.401Z,76.49
2022-12-13T07:58:46.418Z,76.33
2022-12-13T08:01:19.102Z,76.08
2022-12-13T08:03:49.508Z,76.16
2022-12-13T08:06:20.459Z,76.07
2022-12-13T08:08:51.742Z,76.07
2022-12-13T08:11:22.228Z,76.32
2022-12-13T08:13:54.398Z,76.16
2022-12-13T08:16:27.943Z,76.02
2022-12-13T08:19:02.486Z,75.98
2022-12-13T08:21:55.048Z,75.84
2022-12-13T08:24:28.011Z,75.54
2022-12-13T08:27:04.728Z,75.39
2022-12-13T08:29:36.006Z,75.12
2022-12-13T08:32:11.457Z,75.40
2022-12-13T08:34:42.833Z,75.25
2022-12-13T08:37:13.052Z,74.97
2022-12-13T08:39:42.396Z,74.97
2022-12-13T08:42:20.129Z,75.14
2022-12-13T08:44:52.885Z,74.97
2022-12-13T08:47:50.776Z,75.02
2022-12-13T08:50:20.396Z,75.01
2022-12-13T08:52:52.484Z,75.17
2022-12-13T08:55:31.620Z,75.26
2022-12-13T08:58:08.973Z,75.04
2022-12-13T09:00:39.505Z,75.05
2022-12-13T09:03:10.691Z,74.91
2022-12-13T09:05:43.002Z,74.51
2022-12-13T09:08:24.842Z,74.13
2022-12-13T09:11:10.174Z,73.28
2022-12-13T09:13:43.162Z,73.91
2022-12-13T09:16:24.744Z,74.05
2022-12-13T09:18:56.174Z,74.33
2022-12-13T09:21:31.615Z,74.31
2022-12-13T09:24:02.545Z,74.88
2022-12-13T09:26:38.292Z,73.49
2022-12-13T09:29:11.535Z,72.51
2022-12-13T09:31:42.060Z,72.47
2022-12-13T09:34:13.541Z,72.23
2022-12-13T09:36:44.192Z,72.11
2022-12-13T09:39:13.820Z,72.17
2022-12-13T09:42:01.051Z,72.05
2022-12-13T09:44:44.023Z,72.99
2022-12-13T09:47:46.720Z,73.19
2022-12-13T09:50:27.614Z,73.86
2022-12-13T09:53:00.242Z,74.53
2022-12-13T09:55:47.103Z,74.92
2022-12-13T09:58:26.999Z,74.88
2022-12-13T10:00:59.396Z,75.10
2022-12-13T10:03:28.879Z,75.18
2022-12-13T10:06:00.689Z,74.96
2022-12-13T10:08:40.429Z,74.70
2022-12-13T10:11:14.763Z,74.74
2022-12-13T10:13:49.449Z,74.80
2022-12-13T10:16:23.361Z,74.10
2022-12-13T10:18:55.004Z,73.75
2022-12-13T10:21:40.475Z,74.11
2022-12-13T10:24:49.952Z,74.69
2022-12-13T10:27:35.608Z,74.88
2022-12-13T10:30:13.383Z,74.95
2022-12-13T10:32:52.110Z,75.16
2022-12-13T10:35:34.998Z,75.08
2022-12-13T10:38:32.222Z,75.06
2022-12-13T10:41:02.820Z,74.75
2022-12-13T10:43:32.947Z,74.75
2022-12-13T10:46:07.185Z,74.34
2022-12-13T10:49:02.183Z,73.77
2022-12-13T10:51:40.429Z,73.47
2022-12-13T10:54:17.881Z,73.62
2022-12-13T10:56:50.585Z,73.37
2022-12-13T10:59:27.743Z,73.99
2022-12-13T11:02:00.661Z,74.42
2022-12-13T11:04:36.506Z,74.35
2022-12-13T11:07:34.481Z,74.16
2022-12-13T11:10:26.866Z,74.03
2022-12-13T11:13:05.763Z,74.56
2022-12-13T11:15:40.375Z,74.69
2022-12-13T11:18:20.282Z,74.74
2022-12-13T11:21:00.330Z,74.92
2022-12-13T11:23:35.759Z,74.63
2022-12-13T11:26:24.185Z,74.61
2022-12-13T11:29:42.853Z,74.79
2022-12-13T11:32:42.698Z,74.54
2022-12-13T11:35:42.370Z,74.68
2022-12-13T11:38:19.908Z,74.82
2022-12-13T11:41:32.496Z,74.47
2022-12-13T11:44:17.440Z,74.77
2022-12-13T11:46:56.423Z,74.27
2022-12-13T11:49:44.744Z,74.57
2022-12-13T11:52:24.935Z,74.85
2022-12-13T11:55:15.460Z,74.54
2022-12-13T11:58:05.464Z,74.62
2022-12-13T12:00:36.461Z,74.85
2022-12-13T12:03:47.828Z,74.85
2022-12-13T12:06:27.726Z,74.45
2022-12-13T12:09:09.839Z,74.26
2022-12-13T12:11:52.338Z,74.15
2022-12-13T12:14:41.672Z,74.02
2022-12-13T12:17:16.713Z,74.21
2022-12-13T12:19:51.275Z,74.16
2022-12-13T12:22:32.615Z,73.93
2022-12-13T12:25:36.619Z,73.69
2022-12-13T12:28:31.404Z,73.51
2022-12-13T12:31:16.765Z,73.76
2022-12-13T12:34:27.889Z,73.73
2022-12-13T12:37:20.926Z,74.10
2022-12-13T12:40:08.264Z,74.06
2022-12-13T12:43:15.310Z,74.22
2022-12-13T12:46:20.784Z,74.45
2022-12-13T12:49:01.849Z,74.02
2022-12-13T12:51:49.053Z,74.72
2022-12-13T12:54:42.142Z,74.43
2022-12-13T12:57:19.661Z,74.36
2022-12-13T13:00:15.129Z,74.46
2022-12-13T13:03:18.808Z,74.94
2022-12-13T13:06:01.956Z,74.95
2022-12-13T13:08:51.493Z,74.66
2022-12-13T13:11:43.128Z,74.60
2022-12-13T13:14:38.837Z,74.64
2022-12-13T13:17:16.886Z,74.60
2022-12-13T13:20:21.073Z,75.22
2022-12-13T13:23:10.219Z,74.88
2022-12-13T13:26:07.825Z,74.39
2022-12-13T13:28:31.762Z,74.56
2022-12-13T13:31:07.027Z,74.65
2022-12-13T13:33:47.415Z,74.83
2022-12-13T13:36:42.136Z,74.76
2022-12-13T13:39:19.700Z,74.93
2022-12-13T13:42:03.802Z,74.76
2022-12-13T13:44:35.196Z,74.74
2022-12-13T13:47:34.216Z,74.70
2022-12-13T13:50:11.485Z,74.75
2022-12-13T13:53:13.405Z,74.74
2022-12-13T13:56:14.352Z,74.82
2022-12-13T13:59:12.834Z,74.39
2022-12-13T14:02:27.474Z,75.07
2022-12-13T14:05:31.917Z,74.81
2022-12-13T14:08:45.639Z,74.91
2022-12-13T14:11:29.381Z,74.78
2022-12-13T14:14:50.040Z,74.49
2022-12-13T14:17:22.099Z,74.76
2022-12-13T14:20:38.592Z,74.85
2022-12-13T14:23:26.877Z,74.51
2022-12-13T14:26:13.360Z,74.92
2022-12-13T14:29:14.834Z,74.61
2022-12-13T14:31:47.499Z,74.72
2022-12-13T14:34:28.512Z,74.75
2022-12-13T14:37:01.647Z,74.86
2022-12-13T14:39:32.752Z,74.82
2022-12-13T14:42:26.916Z,74.75
2022-12-13T14:44:56.659Z,75.09
2022-12-13T14:47:28.040Z,75.04
2022-12-13T14:49:57.252Z,74.99
2022-12-13T14:52:30.884Z,74.98
2022-12-13T14:55:04.560Z,74.95
2022-12-13T14:57:36.193Z,75.05
2022-12-13T15:00:29.822Z,75.22
2022-12-13T15:03:02.992Z,74.97
2022-12-13T15:05:50.765Z,75.18
2022-12-13T15:08:20.976Z,75.32
2022-12-13T15:10:57.598Z,75.15
2022-12-13T15:13:51.542Z,75.29
2022-12-13T15:16:30.409Z,75.28
2022-12-13T15:19:31.084Z,75.12
2022-12-13T15:22:15.306Z,75.38
2022-12-13T15:24:59.369Z,75.26
2022-12-13T15:27:37.472Z,75.34
2022-12-13T15:30:07.793Z,75.25
2022-12-13T15:32:37.247Z,75.09
2022-12-13T15:35:17.899Z,75.09
2022-12-13T15:37:47.878Z,75.14
2022-12-13T15:40:19.998Z,75.24
2022-12-13T15:42:52.236Z,75.36
2022-12-13T15:45:34.817Z,75.29
2022-12-13T15:48:06.467Z,75.25
2022-12-13T15:50:45.487Z,75.42
2022-12-13T15:53:26.647Z,75.47
2022-12-13T15:55:58.225Z,75.48
2022-12-13T15:58:28.758Z,75.43
2022-12-13T16:00:59.929Z,75.28
2022-12-13T16:03:30.371Z,75.36
2022-12-13T16:06:02.084Z,75.14
2022-12-13T16:08:36.076Z,75.23
2022-12-13T16:11:08.319Z,75.38
2022-12-13T16:13:47.308Z,75.32
2022-12-13T16:16:33.988Z,75.33
2022-12-13T16:19:17.934Z,75.30
2022-12-13T16:21:47.624Z,75.31
2022-12-13T16:24:16.818Z,75.37
2022-12-13T16:26:48.457Z,75.52
2022-12-13T16:29:22.174Z,75.37
2022-12-13T16:31:51.656Z,75.44
2022-12-13T16:34:21.098Z,75.47
2022-12-13T16:36:56.127Z,75.32
2022-12-13T16:39:27.365Z,75.45
2022-12-13T16:41:57.177Z,75.36
2022-12-13T16:44:34.374Z,75.27
2022-12-13T16:47:14.684Z,75.39
2022-12-13T16:49:51.561Z,75.49
2022-12-13T16:52:22.534Z,75.36
2022-12-13T16:54:55.076Z,75.24
2022-12-13T16:57:26.423Z,75.53
2022-12-13T16:59:59.022Z,75.39
2022-12-13T17:02:33.207Z,75.42
2022-12-13T17:05:14.207Z,75.20
2022-12-13T17:07:46.336Z,75.33
2022-12-13T17:10:20.751Z,75.22
2022-12-13T17:12:51.745Z,75.29
2022-12-13T17:15:24.795Z,75.33
2022-12-13T17:17:57.704Z,75.33
2022-12-13T17:20:31.187Z,75.30
2022-12-13T17:23:04.042Z,75.28
2022-12-13T17:25:39.825Z,75.30
2022-12-13T17:28:10.869Z,75.25
2022-12-13T17:30:45.348Z,75.34
2022-12-13T17:33:19.366Z,75.43
2022-12-13T17:35:52.967Z,75.36
2022-12-13T17:38:25.397Z,75.38
2022-12-13T17:40:58.386Z,75.35
2022-12-13T17:43:35.595Z,75.51
2022-12-13T17:46:11.096Z,75.53
2022-12-13T17:48:43.385Z,75.37
2022-12-13T17:51:15.956Z,75.58
2022-12-13T17:53:46.276Z,75.32
2022-12-13T17:56:21.215Z,75.46
2022-12-13T17:58:50.828Z,75.52
2022-12-13T18:01:25.819Z,75.35
2022-12-13T18:03:57.758Z,75.45
2022-12-13T18:06:28.197Z,75.31
2022-12-13T18:09:00.192Z,75.43
2022-12-13T18:11:35.048Z,75.34
2022-12-13T18:14:08.651Z,75.48
2022-12-13T18:16:40.949Z,75.54
2022-12-13T18:19:13.906Z,75.62
2022-12-13T18:21:45.207Z,75.51
2022-12-13T18:24:16.366Z,75.58
2022-12-13T18:26:47.128Z,75.57
2022-12-13T18:29:19.921Z,75.36
2022-12-13T18:31:52.158Z,75.55
2022-12-13T18:34:25.562Z,75.49
2022-12-13T18:36:56.659Z,75.62
2022-12-13T18:39:30.204Z,75.61
2022-12-13T18:42:01.613Z,75.79
2022-12-13T18:44:35.530Z,75.74
2022-12-13T18:47:06.806Z,75.48
2022-12-13T18:49:37.864Z,75.64
2022-12-13T18:52:09.874Z,75.76
2022-12-13T18:54:40.914Z,75.57
2022-12-13T18:57:17.791Z,75.57
2022-12-13T18:59:54.880Z,75.66
2022-12-13T19:02:34.605Z,75.58
2022-12-13T19:05:10.831Z,75.73
2022-12-13T19:07:48.368Z,75.91
2022-12-13T19:10:22.669Z,75.55
2022-12-13T19:12:57.504Z,75.84
2022-12-13T19:15:35.168Z,75.80
2022-12-13T19:18:11.518Z,75.72
2022-12-13T19:20:52.313Z,75.89
2022-12-13T19:23:25.047Z,75.82
2022-12-13T19:25:59.862Z,75.76
2022-12-13T19:28:34.779Z,75.76
2022-12-13T19:31:10.799Z,75.87
2022-12-13T19:33:45.442Z,75.81
2022-12-13T19:36:19.647Z,75.86
2022-12-13T19:38:57.090Z,75.92
2022-12-13T19:41:36.377Z,75.94
2022-12-13T19:44:08.366Z,75.80
2022-12-13T19:51:20.518Z,75.84
2022-12-13T19:53:54.880Z,75.91
2022-12-13T19:56:26.743Z,75.87
2022-12-13T19:58:59.214Z,75.75
2022-12-13T20:01:32.334Z,75.90
2022-12-13T20:04:08.828Z,75.77
2022-12-13T20:06:43.433Z,76.04
2022-12-13T20:09:15.448Z,75.92
2022-12-13T20:11:51.208Z,75.83
2022-12-13T20:14:22.959Z,75.77
2022-12-13T20:16:58.249Z,75.64
2022-12-13T20:19:32.790Z,75.89
2022-12-13T20:22:09.955Z,75.82
2022-12-13T20:24:42.022Z,75.91
2022-12-13T20:27:15.361Z,75.83
2022-12-13T20:29:51.831Z,75.78
2022-12-13T20:32:28.603Z,75.88
2022-12-13T20:35:01.300Z,75.92
2022-12-13T20:37:33.487Z,75.82
2022-12-13T20:40:07.255Z,75.81
2022-12-13T20:42:42.413Z,75.94
2022-12-13T20:45:15.125Z,76.18
2022-12-13T20:47:46.672Z,76.16
2022-12-13T20:50:17.725Z,76.10
2022-12-13T20:52:50.881Z,76.09
2022-12-13T20:55:23.911Z,76.01
2022-12-13T20:57:59.096Z,75.92
2022-12-13T21:00:33.306Z,76.16
2022-12-13T21:03:07.298Z,75.87
2022-12-13T21:05:37.945Z,75.98
2022-12-13T21:08:29.094Z,75.97
2022-12-13T21:11:20.823Z,75.80
2022-12-13T21:14:06.882Z,75.95
2022-12-13T21:16:45.485Z,76.04
2022-12-13T21:19:21.336Z,76.01
2022-12-13T21:21:51.369Z,76.12
2022-12-13T21:24:25.449Z,76.24
2022-12-13T21:26:57.331Z,76.13
2022-12-13T21:29:28.899Z,75.95
2022-12-13T21:32:00.139Z,75.95
2022-12-13T21:34:30.535Z,75.90
2022-12-13T21:37:02.356Z,75.85
2022-12-13T21:39:31.803Z,75.95
2022-12-13T21:42:02.934Z,75.96
2022-12-13T21:44:32.209Z,75.86
2022-12-13T21:47:27.405Z,76.05
2022-12-13T21:49:56.875Z,76.09
2022-12-13T21:52:26.184Z,76.21
2022-12-13T21:55:15.177Z,76.20
2022-12-13T21:58:07.915Z,76.05
2022-12-13T22:00:39.177Z,76.10
2022-12-13T22:03:10.372Z,76.18
2022-12-13T22:05:40.465Z,76.17
2022-12-13T22:08:10.362Z,76.06
2022-12-13T22:10:59.343Z,75.88
2022-12-13T22:13:30.120Z,76.04
2022-12-13T22:15:59.201Z,75.79
2022-12-13T22:18:29.281Z,75.68
2022-12-13T22:21:00.740Z,75.67
2022-12-13T22:23:30.892Z,75.54
2022-12-13T22:25:59.815Z,75.73
2022-12-13T22:28:30.614Z,75.71
2022-12-13T22:30:59.698Z,75.70
2022-12-13T22:33:30.778Z,75.79
2022-12-13T22:36:02.150Z,75.46
2022-12-13T22:38:31.168Z,75.40
2022-12-13T22:41:02.193Z,75.34
2022-12-13T22:43:36.130Z,75.28
2022-12-13T22:46:08.761Z,75.37
2022-12-13T22:48:38.975Z,75.34
2022-12-13T22:51:12.132Z,75.60
2022-12-13T22:53:44.211Z,75.78
2022-12-13T22:56:18.912Z,75.76
2022-12-13T22:58:48.951Z,75.81
2022-12-13T23:01:22.867Z,75.78
2022-12-13T23:03:52.262Z,75.69
2022-12-13T23:06:23.990Z,75.82
2022-12-13T23:08:56.340Z,75.69
2022-12-13T23:11:45.710Z,75.88
2022-12-13T23:14:19.334Z,75.81
2022-12-13T23:16:48.632Z,75.85
2022-12-13T23:22:09.496Z,75.61
2022-12-13T23:24:38.601Z,75.48
2022-12-13T23:27:10.838Z,75.45
2022-12-13T23:29:41.715Z,75.39
2022-12-13T23:32:11.593Z,75.48
2022-12-13T23:34:40.609Z,75.35
2022-12-13T23:37:10.970Z,75.39
2022-12-13T23:39:40.134Z,75.33
2022-12-13T23:42:10.727Z,75.20
2022-12-13T23:44:39.737Z,75.12
2022-12-13T23:47:09.631Z,75.20
2022-12-13T23:49:38.797Z,75.15
2022-12-13T23:52:07.638Z,75.26
2022-12-13T23:54:37.009Z,75.13
2022-12-13T23:57:06.273Z,75.11
2022-12-13T23:59:35.224Z,74.92
